Terminal Aerodrome Forecast
Issued by NWS

Home | Current Version | Previous Version | Graphics & Text | Print | Product List | Glossary Off
Versions: 1 2 3 4 5 6 7 8 9 10 11 12 13 14

000
FTUS43 KDDC 020520
TAFHYS
TAF
KHYS 020520Z 0206/0306 30003KT P6SM OVC060
     FM020900 32006KT P6SM SCT050 SCT200
     FM021500 33008KT P6SM SKC
     FM030000 VRB06KT P6SM SCT070 SCT200=

USA.gov is the U.S. government's official web portal to all federal, state and local government web resources and services.